sensor_id;sensor_type;location;lat;lon;timestamp;P1;durP1;ratioP1;P2;durP2;ratioP2
19735;SDS011;32064;49.310;8.646;2022-11-15T00:00:06;3.93;;;2.97;;
19735;SDS011;32064;49.310;8.646;2022-11-15T00:02:32;5.67;;;3.60;;
19735;SDS011;32064;49.310;8.646;2022-11-15T00:04:57;3.00;;;2.70;;
19735;SDS011;32064;49.310;8.646;2022-11-15T00:07:23;4.53;;;3.43;;
19735;SDS011;32064;49.310;8.646;2022-11-15T00:09:48;7.13;;;3.17;;
19735;SDS011;32064;49.310;8.646;2022-11-15T00:12:14;3.73;;;3.37;;
19735;SDS011;32064;49.310;8.646;2022-11-15T00:14:39;5.33;;;3.37;;
19735;SDS011;32064;49.310;8.646;2022-11-15T00:17:04;4.90;;;3.60;;
19735;SDS011;32064;49.310;8.646;2022-11-15T00:19:30;6.97;;;4.03;;
19735;SDS011;32064;49.310;8.646;2022-11-15T00:21:55;4.43;;;3.40;;
19735;SDS011;32064;49.310;8.646;2022-11-15T00:24:20;3.70;;;3.13;;
19735;SDS011;32064;49.310;8.646;2022-11-15T00:26:46;3.30;;;3.00;;
19735;SDS011;32064;49.310;8.646;2022-11-15T00:29:11;5.90;;;3.27;;
19735;SDS011;32064;49.310;8.646;2022-11-15T00:31:37;6.60;;;3.07;;
19735;SDS011;32064;49.310;8.646;2022-11-15T00:34:02;4.00;;;3.00;;
19735;SDS011;32064;49.310;8.646;2022-11-15T00:36:27;7.13;;;3.40;;
19735;SDS011;32064;49.310;8.646;2022-11-15T00:38:53;7.53;;;3.60;;
19735;SDS011;32064;49.310;8.646;2022-11-15T00:41:18;8.70;;;3.77;;
19735;SDS011;32064;49.310;8.646;2022-11-15T00:43:43;3.90;;;3.20;;
19735;SDS011;32064;49.310;8.646;2022-11-15T00:46:09;4.37;;;3.20;;
19735;SDS011;32064;49.310;8.646;2022-11-15T00:48:35;4.20;;;3.30;;
19735;SDS011;32064;49.310;8.646;2022-11-15T00:51:01;4.37;;;2.97;;
19735;SDS011;32064;49.310;8.646;2022-11-15T00:53:26;3.70;;;2.90;;
19735;SDS011;32064;49.310;8.646;2022-11-15T00:55:52;4.90;;;3.43;;
19735;SDS011;32064;49.310;8.646;2022-11-15T00:58:18;4.20;;;3.07;;
19735;SDS011;32064;49.310;8.646;2022-11-15T01:00:43;5.10;;;2.97;;
19735;SDS011;32064;49.310;8.646;2022-11-15T01:03:09;5.80;;;3.00;;
19735;SDS011;32064;49.310;8.646;2022-11-15T01:05:36;4.17;;;2.73;;
19735;SDS011;32064;49.310;8.646;2022-11-15T01:08:02;3.77;;;2.57;;
19735;SDS011;32064;49.310;8.646;2022-11-15T01:10:28;6.73;;;2.80;;
19735;SDS011;32064;49.310;8.646;2022-11-15T01:12:53;8.60;;;3.20;;
19735;SDS011;32064;49.310;8.646;2022-11-15T01:15:18;5.07;;;2.97;;
19735;SDS011;32064;49.310;8.646;2022-11-15T01:17:44;7.63;;;3.10;;
19735;SDS011;32064;49.310;8.646;2022-11-15T01:20:09;5.20;;;3.13;;
19735;SDS011;32064;49.310;8.646;2022-11-15T01:22:35;4.20;;;3.13;;
19735;SDS011;32064;49.310;8.646;2022-11-15T01:25:00;4.40;;;2.77;;
19735;SDS011;32064;49.310;8.646;2022-11-15T01:27:26;7.83;;;2.90;;
19735;SDS011;32064;49.310;8.646;2022-11-15T01:29:51;4.47;;;3.37;;
19735;SDS011;32064;49.310;8.646;2022-11-15T01:32:17;3.80;;;2.87;;
19735;SDS011;32064;49.310;8.646;2022-11-15T01:34:42;4.57;;;2.93;;
19735;SDS011;32064;49.310;8.646;2022-11-15T01:37:08;3.90;;;2.97;;
19735;SDS011;32064;49.310;8.646;2022-11-15T01:39:33;4.43;;;3.07;;
19735;SDS011;32064;49.310;8.646;2022-11-15T01:41:58;5.80;;;3.13;;
19735;SDS011;32064;49.310;8.646;2022-11-15T01:46:55;4.00;;;3.13;;
19735;SDS011;32064;49.310;8.646;2022-11-15T01:49:22;6.67;;;3.10;;
19735;SDS011;32064;49.310;8.646;2022-11-15T01:51:49;5.57;;;2.53;;
19735;SDS011;32064;49.310;8.646;2022-11-15T01:54:15;4.93;;;2.77;;
19735;SDS011;32064;49.310;8.646;2022-11-15T01:56:45;3.07;;;2.77;;
19735;SDS011;32064;49.310;8.646;2022-11-15T01:59:24;3.97;;;2.73;;
19735;SDS011;32064;49.310;8.646;2022-11-15T02:01:51;3.70;;;2.70;;
19735;SDS011;32064;49.310;8.646;2022-11-15T02:04:18;3.90;;;2.43;;
19735;SDS011;32064;49.310;8.646;2022-11-15T02:06:49;3.93;;;2.93;;
19735;SDS011;32064;49.310;8.646;2022-11-15T02:09:14;4.63;;;3.27;;
19735;SDS011;32064;49.310;8.646;2022-11-15T02:11:40;6.07;;;2.77;;
19735;SDS011;32064;49.310;8.646;2022-11-15T02:14:06;5.83;;;2.60;;
19735;SDS011;32064;49.310;8.646;2022-11-15T02:21:51;4.93;;;2.90;;
19735;SDS011;32064;49.310;8.646;2022-11-15T02:25:18;4.30;;;2.80;;
19735;SDS011;32064;49.310;8.646;2022-11-15T02:30:49;3.40;;;2.53;;
19735;SDS011;32064;49.310;8.646;2022-11-15T02:36:00;5.13;;;2.77;;
19735;SDS011;32064;49.310;8.646;2022-11-15T02:41:48;5.10;;;2.70;;
19735;SDS011;32064;49.310;8.646;2022-11-15T02:44:30;5.67;;;2.73;;
19735;SDS011;32064;49.310;8.646;2022-11-15T02:47:03;4.70;;;2.70;;
19735;SDS011;32064;49.310;8.646;2022-11-15T02:49:49;3.93;;;2.57;;
19735;SDS011;32064;49.310;8.646;2022-11-15T02:52:20;4.97;;;2.73;;
19735;SDS011;32064;49.310;8.646;2022-11-15T02:54:56;3.87;;;2.50;;
19735;SDS011;32064;49.310;8.646;2022-11-15T03:00:10;4.47;;;2.47;;
19735;SDS011;32064;49.310;8.646;2022-11-15T03:03:08;4.93;;;2.80;;
19735;SDS011;32064;49.310;8.646;2022-11-15T03:08:31;5.00;;;2.90;;
19735;SDS011;32064;49.310;8.646;2022-11-15T03:11:04;4.30;;;2.80;;
19735;SDS011;32064;49.310;8.646;2022-11-15T03:13:49;3.73;;;2.43;;
19735;SDS011;32064;49.310;8.646;2022-11-15T03:21:48;2.67;;;2.10;;
19735;SDS011;32064;49.310;8.646;2022-11-15T03:24:16;5.37;;;2.87;;
19735;SDS011;32064;49.310;8.646;2022-11-15T03:26:44;4.77;;;2.80;;
19735;SDS011;32064;49.310;8.646;2022-11-15T03:29:22;3.27;;;2.37;;
19735;SDS011;32064;49.310;8.646;2022-11-15T03:31:54;5.13;;;2.70;;
19735;SDS011;32064;49.310;8.646;2022-11-15T03:34:29;2.70;;;2.47;;
19735;SDS011;32064;49.310;8.646;2022-11-15T03:36:58;5.00;;;2.30;;
19735;SDS011;32064;49.310;8.646;2022-11-15T03:39:24;3.50;;;2.60;;
19735;SDS011;32064;49.310;8.646;2022-11-15T03:47:41;2.13;;;1.90;;
19735;SDS011;32064;49.310;8.646;2022-11-15T03:50:14;4.30;;;2.47;;
19735;SDS011;32064;49.310;8.646;2022-11-15T03:52:43;3.43;;;2.70;;
19735;SDS011;32064;49.310;8.646;2022-11-15T03:55:11;2.70;;;1.97;;
19735;SDS011;32064;49.310;8.646;2022-11-15T03:57:39;3.40;;;2.10;;
19735;SDS011;32064;49.310;8.646;2022-11-15T04:00:04;3.40;;;2.10;;
19735;SDS011;32064;49.310;8.646;2022-11-15T04:02:30;4.03;;;2.27;;
19735;SDS011;32064;49.310;8.646;2022-11-15T04:04:56;4.83;;;2.40;;
19735;SDS011;32064;49.310;8.646;2022-11-15T04:07:21;4.43;;;2.30;;
19735;SDS011;32064;49.310;8.646;2022-11-15T04:09:46;2.43;;;2.10;;
19735;SDS011;32064;49.310;8.646;2022-11-15T04:12:27;3.47;;;2.10;;
19735;SDS011;32064;49.310;8.646;2022-11-15T04:20:01;3.33;;;1.90;;
19735;SDS011;32064;49.310;8.646;2022-11-15T04:22:51;4.53;;;2.10;;
19735;SDS011;32064;49.310;8.646;2022-11-15T04:25:36;3.10;;;2.17;;
19735;SDS011;32064;49.310;8.646;2022-11-15T04:28:01;3.10;;;2.07;;
19735;SDS011;32064;49.310;8.646;2022-11-15T04:30:27;6.57;;;2.37;;
19735;SDS011;32064;49.310;8.646;2022-11-15T04:32:52;2.67;;;2.40;;
19735;SDS011;32064;49.310;8.646;2022-11-15T04:35:17;6.00;;;2.30;;
19735;SDS011;32064;49.310;8.646;2022-11-15T04:37:43;3.47;;;2.10;;
19735;SDS011;32064;49.310;8.646;2022-11-15T04:40:08;2.70;;;2.30;;
19735;SDS011;32064;49.310;8.646;2022-11-15T04:42:34;3.80;;;2.27;;
19735;SDS011;32064;49.310;8.646;2022-11-15T04:44:59;3.00;;;2.20;;
19735;SDS011;32064;49.310;8.646;2022-11-15T04:47:24;3.27;;;2.50;;
19735;SDS011;32064;49.310;8.646;2022-11-15T04:49:50;5.73;;;2.20;;
19735;SDS011;32064;49.310;8.646;2022-11-15T04:52:15;4.50;;;2.23;;
19735;SDS011;32064;49.310;8.646;2022-11-15T04:54:41;4.83;;;2.00;;
19735;SDS011;32064;49.310;8.646;2022-11-15T04:57:07;3.00;;;2.27;;
19735;SDS011;32064;49.310;8.646;2022-11-15T04:59:33;3.20;;;2.00;;
19735;SDS011;32064;49.310;8.646;2022-11-15T05:01:58;3.87;;;2.13;;
19735;SDS011;32064;49.310;8.646;2022-11-15T05:04:24;3.53;;;2.13;;
19735;SDS011;32064;49.310;8.646;2022-11-15T05:06:49;3.23;;;2.20;;
19735;SDS011;32064;49.310;8.646;2022-11-15T05:09:19;3.33;;;2.50;;
19735;SDS011;32064;49.310;8.646;2022-11-15T05:11:45;3.60;;;2.50;;
19735;SDS011;32064;49.310;8.646;2022-11-15T05:14:10;3.77;;;2.30;;
19735;SDS011;32064;49.310;8.646;2022-11-15T05:16:36;3.57;;;2.27;;
19735;SDS011;32064;49.310;8.646;2022-11-15T05:19:05;3.43;;;2.20;;
19735;SDS011;32064;49.310;8.646;2022-11-15T05:21:31;2.33;;;2.00;;
19735;SDS011;32064;49.310;8.646;2022-11-15T05:23:57;5.40;;;2.23;;
19735;SDS011;32064;49.310;8.646;2022-11-15T05:26:23;5.57;;;2.53;;
19735;SDS011;32064;49.310;8.646;2022-11-15T05:28:53;4.13;;;2.40;;
19735;SDS011;32064;49.310;8.646;2022-11-15T05:31:20;4.43;;;2.30;;
19735;SDS011;32064;49.310;8.646;2022-11-15T05:33:46;2.97;;;2.00;;
19735;SDS011;32064;49.310;8.646;2022-11-15T05:38:55;3.80;;;2.43;;
19735;SDS011;32064;49.310;8.646;2022-11-15T05:41:22;3.20;;;2.37;;
19735;SDS011;32064;49.310;8.646;2022-11-15T05:43:54;2.83;;;2.20;;
19735;SDS011;32064;49.310;8.646;2022-11-15T05:46:20;4.43;;;2.40;;
19735;SDS011;32064;49.310;8.646;2022-11-15T05:48:46;2.50;;;2.17;;
19735;SDS011;32064;49.310;8.646;2022-11-15T05:51:15;2.93;;;2.43;;
19735;SDS011;32064;49.310;8.646;2022-11-15T05:53:43;4.13;;;2.40;;
19735;SDS011;32064;49.310;8.646;2022-11-15T05:56:09;2.20;;;2.00;;
19735;SDS011;32064;49.310;8.646;2022-11-15T05:58:35;2.33;;;2.07;;
19735;SDS011;32064;49.310;8.646;2022-11-15T06:01:02;3.33;;;2.30;;
19735;SDS011;32064;49.310;8.646;2022-11-15T06:03:27;4.93;;;2.27;;
19735;SDS011;32064;49.310;8.646;2022-11-15T06:05:53;2.50;;;2.30;;
19735;SDS011;32064;49.310;8.646;2022-11-15T06:08:21;3.53;;;2.33;;
19735;SDS011;32064;49.310;8.646;2022-11-15T06:10:46;3.73;;;2.73;;
19735;SDS011;32064;49.310;8.646;2022-11-15T06:13:12;4.90;;;2.40;;
19735;SDS011;32064;49.310;8.646;2022-11-15T06:15:37;6.17;;;2.60;;
19735;SDS011;32064;49.310;8.646;2022-11-15T06:18:02;4.70;;;2.40;;
19735;SDS011;32064;49.310;8.646;2022-11-15T06:20:28;2.63;;;2.30;;
19735;SDS011;32064;49.310;8.646;2022-11-15T06:23:01;4.47;;;2.50;;
19735;SDS011;32064;49.310;8.646;2022-11-15T06:25:29;3.40;;;2.73;;
19735;SDS011;32064;49.310;8.646;2022-11-15T06:27:55;3.50;;;2.30;;
19735;SDS011;32064;49.310;8.646;2022-11-15T06:30:22;5.43;;;2.40;;
19735;SDS011;32064;49.310;8.646;2022-11-15T06:32:49;3.63;;;2.30;;
19735;SDS011;32064;49.310;8.646;2022-11-15T06:35:14;3.60;;;2.67;;
19735;SDS011;32064;49.310;8.646;2022-11-15T06:37:40;6.93;;;2.67;;
19735;SDS011;32064;49.310;8.646;2022-11-15T06:40:07;5.07;;;2.70;;
19735;SDS011;32064;49.310;8.646;2022-11-15T06:42:33;3.77;;;2.67;;
19735;SDS011;32064;49.310;8.646;2022-11-15T06:44:58;6.27;;;2.53;;
19735;SDS011;32064;49.310;8.646;2022-11-15T06:47:24;3.67;;;2.60;;
19735;SDS011;32064;49.310;8.646;2022-11-15T06:49:50;3.70;;;2.60;;
19735;SDS011;32064;49.310;8.646;2022-11-15T06:52:15;4.63;;;2.83;;
19735;SDS011;32064;49.310;8.646;2022-11-15T06:54:43;6.27;;;2.60;;
19735;SDS011;32064;49.310;8.646;2022-11-15T06:57:09;5.80;;;2.40;;
19735;SDS011;32064;49.310;8.646;2022-11-15T06:59:35;5.00;;;2.73;;
19735;SDS011;32064;49.310;8.646;2022-11-15T07:02:01;3.37;;;2.47;;
19735;SDS011;32064;49.310;8.646;2022-11-15T07:04:26;9.57;;;2.80;;
19735;SDS011;32064;49.310;8.646;2022-11-15T07:06:51;5.10;;;2.90;;
19735;SDS011;32064;49.310;8.646;2022-11-15T07:09:17;5.03;;;3.53;;
19735;SDS011;32064;49.310;8.646;2022-11-15T07:11:42;4.37;;;3.00;;
19735;SDS011;32064;49.310;8.646;2022-11-15T07:14:07;4.40;;;3.50;;
19735;SDS011;32064;49.310;8.646;2022-11-15T07:16:33;4.47;;;3.70;;
19735;SDS011;32064;49.310;8.646;2022-11-15T07:18:58;5.20;;;3.23;;
19735;SDS011;32064;49.310;8.646;2022-11-15T07:21:24;6.83;;;3.30;;
19735;SDS011;32064;49.310;8.646;2022-11-15T07:23:49;3.50;;;2.73;;
19735;SDS011;32064;49.310;8.646;2022-11-15T07:26:14;7.03;;;2.40;;
19735;SDS011;32064;49.310;8.646;2022-11-15T07:28:40;4.37;;;2.30;;
19735;SDS011;32064;49.310;8.646;2022-11-15T07:31:06;4.73;;;2.40;;
19735;SDS011;32064;49.310;8.646;2022-11-15T07:33:33;3.40;;;2.30;;
19735;SDS011;32064;49.310;8.646;2022-11-15T07:36:02;3.03;;;2.33;;
19735;SDS011;32064;49.310;8.646;2022-11-15T07:38:29;3.60;;;2.63;;
19735;SDS011;32064;49.310;8.646;2022-11-15T07:40:58;3.80;;;2.40;;
19735;SDS011;32064;49.310;8.646;2022-11-15T07:43:26;3.33;;;2.20;;
19735;SDS011;32064;49.310;8.646;2022-11-15T07:45:53;4.73;;;2.70;;
19735;SDS011;32064;49.310;8.646;2022-11-15T07:48:18;7.73;;;2.27;;
19735;SDS011;32064;49.310;8.646;2022-11-15T07:50:44;3.50;;;2.20;;
19735;SDS011;32064;49.310;8.646;2022-11-15T07:53:09;2.90;;;2.20;;
19735;SDS011;32064;49.310;8.646;2022-11-15T07:55:35;4.97;;;2.20;;
19735;SDS011;32064;49.310;8.646;2022-11-15T07:58:02;3.77;;;2.60;;
19735;SDS011;32064;49.310;8.646;2022-11-15T08:00:29;2.87;;;2.30;;
19735;SDS011;32064;49.310;8.646;2022-11-15T08:03:01;2.67;;;2.17;;
19735;SDS011;32064;49.310;8.646;2022-11-15T08:05:35;4.70;;;2.43;;
19735;SDS011;32064;49.310;8.646;2022-11-15T08:08:01;4.93;;;2.20;;
19735;SDS011;32064;49.310;8.646;2022-11-15T08:10:28;6.20;;;2.20;;
19735;SDS011;32064;49.310;8.646;2022-11-15T08:12:57;4.63;;;2.00;;
19735;SDS011;32064;49.310;8.646;2022-11-15T08:15:24;2.80;;;1.97;;
19735;SDS011;32064;49.310;8.646;2022-11-15T08:17:54;4.20;;;2.17;;
19735;SDS011;32064;49.310;8.646;2022-11-15T08:20:24;3.83;;;2.60;;
19735;SDS011;32064;49.310;8.646;2022-11-15T08:22:50;3.20;;;2.23;;
19735;SDS011;32064;49.310;8.646;2022-11-15T08:25:16;2.63;;;2.37;;
19735;SDS011;32064;49.310;8.646;2022-11-15T08:27:42;2.97;;;2.00;;
19735;SDS011;32064;49.310;8.646;2022-11-15T08:30:08;4.73;;;2.30;;
19735;SDS011;32064;49.310;8.646;2022-11-15T08:32:33;5.90;;;2.40;;
19735;SDS011;32064;49.310;8.646;2022-11-15T08:34:59;6.90;;;2.10;;
19735;SDS011;32064;49.310;8.646;2022-11-15T08:37:24;3.77;;;2.00;;
19735;SDS011;32064;49.310;8.646;2022-11-15T08:39:50;5.23;;;2.37;;
19735;SDS011;32064;49.310;8.646;2022-11-15T08:42:15;6.23;;;2.40;;
19735;SDS011;32064;49.310;8.646;2022-11-15T08:44:41;5.63;;;2.00;;
19735;SDS011;32064;49.310;8.646;2022-11-15T08:47:07;2.57;;;2.20;;
19735;SDS011;32064;49.310;8.646;2022-11-15T08:49:33;4.00;;;2.10;;
19735;SDS011;32064;49.310;8.646;2022-11-15T08:51:58;4.27;;;2.50;;
19735;SDS011;32064;49.310;8.646;2022-11-15T08:54:23;4.73;;;2.33;;
19735;SDS011;32064;49.310;8.646;2022-11-15T08:56:49;5.20;;;2.10;;
19735;SDS011;32064;49.310;8.646;2022-11-15T08:59:14;4.30;;;2.60;;
19735;SDS011;32064;49.310;8.646;2022-11-15T09:01:40;7.47;;;3.27;;
19735;SDS011;32064;49.310;8.646;2022-11-15T09:04:05;3.23;;;2.40;;
19735;SDS011;32064;49.310;8.646;2022-11-15T09:06:30;4.43;;;2.50;;
19735;SDS011;32064;49.310;8.646;2022-11-15T09:08:56;8.67;;;2.57;;
19735;SDS011;32064;49.310;8.646;2022-11-15T09:11:22;8.07;;;2.70;;
19735;SDS011;32064;49.310;8.646;2022-11-15T09:13:48;2.77;;;2.20;;
19735;SDS011;32064;49.310;8.646;2022-11-15T09:16:14;5.30;;;2.00;;
19735;SDS011;32064;49.310;8.646;2022-11-15T09:18:40;6.07;;;2.70;;
19735;SDS011;32064;49.310;8.646;2022-11-15T09:21:06;3.40;;;2.30;;
19735;SDS011;32064;49.310;8.646;2022-11-15T09:23:32;4.20;;;2.00;;
19735;SDS011;32064;49.310;8.646;2022-11-15T09:26:01;9.10;;;2.30;;
19735;SDS011;32064;49.310;8.646;2022-11-15T09:28:28;4.80;;;2.03;;
19735;SDS011;32064;49.310;8.646;2022-11-15T09:30:57;3.17;;;2.27;;
19735;SDS011;32064;49.310;8.646;2022-11-15T09:33:24;4.17;;;2.03;;
19735;SDS011;32064;49.310;8.646;2022-11-15T09:35:50;5.13;;;2.20;;
19735;SDS011;32064;49.310;8.646;2022-11-15T09:38:16;5.97;;;2.60;;
19735;SDS011;32064;49.310;8.646;2022-11-15T09:40:42;4.13;;;2.43;;
19735;SDS011;32064;49.310;8.646;2022-11-15T09:43:10;7.53;;;2.40;;
19735;SDS011;32064;49.310;8.646;2022-11-15T09:51:13;3.80;;;2.40;;
19735;SDS011;32064;49.310;8.646;2022-11-15T09:53:48;5.63;;;1.83;;
19735;SDS011;32064;49.310;8.646;2022-11-15T09:56:22;2.90;;;2.20;;
19735;SDS011;32064;49.310;8.646;2022-11-15T10:05:15;2.77;;;2.10;;
19735;SDS011;32064;49.310;8.646;2022-11-15T10:10:39;4.20;;;2.17;;
19735;SDS011;32064;49.310;8.646;2022-11-15T10:13:28;4.23;;;2.37;;
19735;SDS011;32064;49.310;8.646;2022-11-15T10:18:35;3.60;;;2.23;;
19735;SDS011;32064;49.310;8.646;2022-11-15T10:21:12;3.57;;;2.60;;
19735;SDS011;32064;49.310;8.646;2022-11-15T10:23:42;3.40;;;2.40;;
19735;SDS011;32064;49.310;8.646;2022-11-15T10:26:08;4.10;;;2.60;;
19735;SDS011;32064;49.310;8.646;2022-11-15T10:28:38;4.77;;;2.40;;
19735;SDS011;32064;49.310;8.646;2022-11-15T10:31:10;4.07;;;2.70;;
19735;SDS011;32064;49.310;8.646;2022-11-15T10:33:47;3.50;;;2.30;;
19735;SDS011;32064;49.310;8.646;2022-11-15T10:41:13;4.10;;;2.37;;
19735;SDS011;32064;49.310;8.646;2022-11-15T10:43:39;2.70;;;2.20;;
19735;SDS011;32064;49.310;8.646;2022-11-15T10:46:38;4.00;;;2.40;;
19735;SDS011;32064;49.310;8.646;2022-11-15T10:51:53;2.97;;;2.20;;
19735;SDS011;32064;49.310;8.646;2022-11-15T10:56:54;7.07;;;2.90;;
19735;SDS011;32064;49.310;8.646;2022-11-15T10:59:29;5.67;;;3.10;;
19735;SDS011;32064;49.310;8.646;2022-11-15T11:01:56;6.00;;;2.47;;
19735;SDS011;32064;49.310;8.646;2022-11-15T11:04:22;6.03;;;3.33;;
19735;SDS011;32064;49.310;8.646;2022-11-15T11:06:58;4.57;;;3.10;;
19735;SDS011;32064;49.310;8.646;2022-11-15T11:09:32;4.77;;;3.10;;
19735;SDS011;32064;49.310;8.646;2022-11-15T11:11:57;4.28;;;3.38;;
19735;SDS011;32064;49.310;8.646;2022-11-15T11:14:33;8.40;;;3.10;;
19735;SDS011;32064;49.310;8.646;2022-11-15T11:20:30;4.33;;;2.40;;
19735;SDS011;32064;49.310;8.646;2022-11-15T11:31:17;4.87;;;2.27;;
19735;SDS011;32064;49.310;8.646;2022-11-15T11:45:03;4.43;;;1.67;;
19735;SDS011;32064;49.310;8.646;2022-11-15T11:47:50;4.90;;;2.45;;
19735;SDS011;32064;49.310;8.646;2022-11-15T11:50:26;5.13;;;2.50;;
19735;SDS011;32064;49.310;8.646;2022-11-15T11:58:12;4.13;;;1.80;;
19735;SDS011;32064;49.310;8.646;2022-11-15T12:00:49;4.03;;;2.15;;
19735;SDS011;32064;49.310;8.646;2022-11-15T12:03:21;4.85;;;1.98;;
19735;SDS011;32064;49.310;8.646;2022-11-15T12:05:57;3.95;;;2.40;;
19735;SDS011;32064;49.310;8.646;2022-11-15T12:08:46;3.45;;;2.35;;
19735;SDS011;32064;49.310;8.646;2022-11-15T12:11:20;4.13;;;2.37;;
19735;SDS011;32064;49.310;8.646;2022-11-15T12:13:53;6.07;;;2.90;;
19735;SDS011;32064;49.310;8.646;2022-11-15T12:16:29;3.37;;;2.50;;
19735;SDS011;32064;49.310;8.646;2022-11-15T12:18:59;4.50;;;2.80;;
19735;SDS011;32064;49.310;8.646;2022-11-15T12:24:29;4.60;;;2.87;;
19735;SDS011;32064;49.310;8.646;2022-11-15T12:27:13;5.60;;;2.87;;
19735;SDS011;32064;49.310;8.646;2022-11-15T12:29:50;6.37;;;3.27;;
19735;SDS011;32064;49.310;8.646;2022-11-15T12:32:30;4.00;;;2.92;;
19735;SDS011;32064;49.310;8.646;2022-11-15T12:34:58;5.23;;;3.10;;
19735;SDS011;32064;49.310;8.646;2022-11-15T12:45:22;4.40;;;3.07;;
19735;SDS011;32064;49.310;8.646;2022-11-15T12:47:51;6.93;;;3.00;;
19735;SDS011;32064;49.310;8.646;2022-11-15T12:50:16;4.80;;;3.20;;
19735;SDS011;32064;49.310;8.646;2022-11-15T13:14:49;7.80;;;3.70;;
19735;SDS011;32064;49.310;8.646;2022-11-15T13:17:56;4.60;;;3.27;;
19735;SDS011;32064;49.310;8.646;2022-11-15T13:20:28;6.07;;;3.25;;
19735;SDS011;32064;49.310;8.646;2022-11-15T13:25:30;4.75;;;3.00;;
19735;SDS011;32064;49.310;8.646;2022-11-15T13:28:25;8.80;;;2.83;;
19735;SDS011;32064;49.310;8.646;2022-11-15T13:31:18;5.37;;;2.47;;
19735;SDS011;32064;49.310;8.646;2022-11-15T13:33:44;5.07;;;2.97;;
19735;SDS011;32064;49.310;8.646;2022-11-15T13:36:20;4.97;;;2.60;;
19735;SDS011;32064;49.310;8.646;2022-11-15T13:38:55;9.37;;;3.20;;
19735;SDS011;32064;49.310;8.646;2022-11-15T13:41:30;4.20;;;2.80;;
19735;SDS011;32064;49.310;8.646;2022-11-15T13:44:00;3.72;;;2.90;;
19735;SDS011;32064;49.310;8.646;2022-11-15T13:46:30;4.78;;;2.78;;
19735;SDS011;32064;49.310;8.646;2022-11-15T13:49:01;4.38;;;2.60;;
19735;SDS011;32064;49.310;8.646;2022-11-15T13:51:33;5.33;;;3.03;;
19735;SDS011;32064;49.310;8.646;2022-11-15T13:56:51;3.30;;;2.80;;
19735;SDS011;32064;49.310;8.646;2022-11-15T13:59:28;4.72;;;2.45;;
19735;SDS011;32064;49.310;8.646;2022-11-15T14:01:57;5.63;;;2.70;;
19735;SDS011;32064;49.310;8.646;2022-11-15T14:04:26;4.90;;;2.20;;
19735;SDS011;32064;49.310;8.646;2022-11-15T14:06:59;3.15;;;2.58;;
19735;SDS011;32064;49.310;8.646;2022-11-15T14:09:34;4.23;;;2.50;;
19735;SDS011;32064;49.310;8.646;2022-11-15T14:12:02;7.53;;;2.60;;
19735;SDS011;32064;49.310;8.646;2022-11-15T14:14:46;5.63;;;2.57;;
19735;SDS011;32064;49.310;8.646;2022-11-15T14:17:17;3.70;;;2.40;;
19735;SDS011;32064;49.310;8.646;2022-11-15T14:19:45;7.77;;;2.30;;
19735;SDS011;32064;49.310;8.646;2022-11-15T14:22:12;2.58;;;1.95;;
19735;SDS011;32064;49.310;8.646;2022-11-15T14:24:42;2.63;;;2.30;;
19735;SDS011;32064;49.310;8.646;2022-11-15T14:29:49;7.95;;;2.50;;
19735;SDS011;32064;49.310;8.646;2022-11-15T14:32:16;3.47;;;2.50;;
19735;SDS011;32064;49.310;8.646;2022-11-15T14:34:44;4.13;;;2.67;;
19735;SDS011;32064;49.310;8.646;2022-11-15T14:37:21;2.83;;;2.43;;
19735;SDS011;32064;49.310;8.646;2022-11-15T14:39:51;3.27;;;2.50;;
19735;SDS011;32064;49.310;8.646;2022-11-15T14:42:18;3.33;;;2.30;;
19735;SDS011;32064;49.310;8.646;2022-11-15T14:44:44;5.80;;;2.93;;
19735;SDS011;32064;49.310;8.646;2022-11-15T14:47:10;6.93;;;2.40;;
19735;SDS011;32064;49.310;8.646;2022-11-15T14:49:35;3.72;;;2.30;;
19735;SDS011;32064;49.310;8.646;2022-11-15T14:52:00;4.70;;;2.67;;
19735;SDS011;32064;49.310;8.646;2022-11-15T14:54:26;4.87;;;2.60;;
19735;SDS011;32064;49.310;8.646;2022-11-15T14:56:51;5.53;;;2.23;;
19735;SDS011;32064;49.310;8.646;2022-11-15T14:59:17;4.20;;;2.30;;
19735;SDS011;32064;49.310;8.646;2022-11-15T15:01:42;5.73;;;2.50;;
19735;SDS011;32064;49.310;8.646;2022-11-15T15:04:08;4.43;;;2.30;;
19735;SDS011;32064;49.310;8.646;2022-11-15T15:06:35;4.67;;;2.30;;
19735;SDS011;32064;49.310;8.646;2022-11-15T15:09:01;5.05;;;2.30;;
19735;SDS011;32064;49.310;8.646;2022-11-15T15:11:27;6.27;;;2.10;;
19735;SDS011;32064;49.310;8.646;2022-11-15T15:13:55;4.93;;;2.10;;
19735;SDS011;32064;49.310;8.646;2022-11-15T15:16:22;3.20;;;2.17;;
19735;SDS011;32064;49.310;8.646;2022-11-15T15:18:48;3.33;;;2.47;;
19735;SDS011;32064;49.310;8.646;2022-11-15T15:21:21;3.03;;;2.50;;
19735;SDS011;32064;49.310;8.646;2022-11-15T15:23:49;4.70;;;2.40;;
19735;SDS011;32064;49.310;8.646;2022-11-15T15:26:14;5.13;;;2.70;;
19735;SDS011;32064;49.310;8.646;2022-11-15T15:28:40;2.80;;;2.47;;
19735;SDS011;32064;49.310;8.646;2022-11-15T15:31:05;7.43;;;3.00;;
19735;SDS011;32064;49.310;8.646;2022-11-15T15:33:32;5.15;;;2.65;;
19735;SDS011;32064;49.310;8.646;2022-11-15T15:35:57;7.97;;;2.73;;
19735;SDS011;32064;49.310;8.646;2022-11-15T15:38:23;4.63;;;3.07;;
19735;SDS011;32064;49.310;8.646;2022-11-15T15:40:48;9.50;;;3.07;;
19735;SDS011;32064;49.310;8.646;2022-11-15T15:43:14;4.87;;;2.97;;
19735;SDS011;32064;49.310;8.646;2022-11-15T15:45:39;5.87;;;3.00;;
19735;SDS011;32064;49.310;8.646;2022-11-15T15:48:10;9.77;;;3.27;;
19735;SDS011;32064;49.310;8.646;2022-11-15T15:50:37;5.75;;;2.78;;
19735;SDS011;32064;49.310;8.646;2022-11-15T15:53:03;5.53;;;2.80;;
19735;SDS011;32064;49.310;8.646;2022-11-15T15:55:29;7.17;;;2.40;;
19735;SDS011;32064;49.310;8.646;2022-11-15T15:57:55;6.73;;;2.90;;
19735;SDS011;32064;49.310;8.646;2022-11-15T16:00:20;5.20;;;1.93;;
19735;SDS011;32064;49.310;8.646;2022-11-15T16:02:48;6.17;;;2.57;;
19735;SDS011;32064;49.310;8.646;2022-11-15T16:05:14;5.57;;;2.70;;
19735;SDS011;32064;49.310;8.646;2022-11-15T16:07:40;5.60;;;2.70;;
19735;SDS011;32064;49.310;8.646;2022-11-15T16:12:42;5.47;;;2.60;;
19735;SDS011;32064;49.310;8.646;2022-11-15T16:15:07;4.00;;;2.60;;
19735;SDS011;32064;49.310;8.646;2022-11-15T16:17:34;4.93;;;2.53;;
19735;SDS011;32064;49.310;8.646;2022-11-15T16:20:03;3.37;;;2.70;;
19735;SDS011;32064;49.310;8.646;2022-11-15T16:22:29;5.90;;;2.97;;
19735;SDS011;32064;49.310;8.646;2022-11-15T16:24:54;3.83;;;2.37;;
19735;SDS011;32064;49.310;8.646;2022-11-15T16:27:20;7.80;;;2.63;;
19735;SDS011;32064;49.310;8.646;2022-11-15T16:29:47;6.40;;;2.80;;
19735;SDS011;32064;49.310;8.646;2022-11-15T16:32:12;3.83;;;2.50;;
19735;SDS011;32064;49.310;8.646;2022-11-15T16:34:39;8.30;;;2.67;;
19735;SDS011;32064;49.310;8.646;2022-11-15T16:37:04;6.07;;;2.93;;
19735;SDS011;32064;49.310;8.646;2022-11-15T16:39:30;8.33;;;3.07;;
19735;SDS011;32064;49.310;8.646;2022-11-15T16:41:59;4.40;;;2.60;;
19735;SDS011;32064;49.310;8.646;2022-11-15T16:44:25;4.33;;;2.90;;
19735;SDS011;32064;49.310;8.646;2022-11-15T16:46:51;4.10;;;3.07;;
19735;SDS011;32064;49.310;8.646;2022-11-15T16:49:20;7.53;;;3.10;;
19735;SDS011;32064;49.310;8.646;2022-11-15T16:51:46;6.70;;;3.43;;
19735;SDS011;32064;49.310;8.646;2022-11-15T16:54:13;4.13;;;2.60;;
19735;SDS011;32064;49.310;8.646;2022-11-15T16:56:38;6.13;;;2.60;;
19735;SDS011;32064;49.310;8.646;2022-11-15T16:59:04;3.90;;;2.80;;
19735;SDS011;32064;49.310;8.646;2022-11-15T17:01:31;7.03;;;2.87;;
19735;SDS011;32064;49.310;8.646;2022-11-15T17:04:01;5.40;;;2.90;;
19735;SDS011;32064;49.310;8.646;2022-11-15T17:06:40;4.13;;;2.37;;
19735;SDS011;32064;49.310;8.646;2022-11-15T17:09:40;6.67;;;3.20;;
19735;SDS011;32064;49.310;8.646;2022-11-15T17:11:59;3.37;;;2.50;;
19735;SDS011;32064;49.310;8.646;2022-11-15T17:14:24;7.60;;;2.57;;
19735;SDS011;32064;49.310;8.646;2022-11-15T17:16:50;6.07;;;2.40;;